createdAt,value
2023-01-27T00:00:38.373Z,6.40
2023-01-27T00:03:04.897Z,8.57
2023-01-27T00:05:31.444Z,7.70
2023-01-27T00:07:58.806Z,9.07
2023-01-27T00:10:26.743Z,7.43
2023-01-27T00:13:12.419Z,6.72
2023-01-27T00:15:39.536Z,8.57
2023-01-27T00:18:06.571Z,8.18
2023-01-27T00:20:51.854Z,6.45
2023-01-27T00:23:43.451Z,9.55
2023-01-27T00:26:13.264Z,7.70
2023-01-27T00:28:41.162Z,7.07
2023-01-27T00:31:28.544Z,8.00
2023-01-27T00:33:56.280Z,6.78
2023-01-27T00:36:23.187Z,7.88
2023-01-27T00:38:49.753Z,6.03
2023-01-27T00:41:19.411Z,5.53
2023-01-27T00:43:51.639Z,6.00
2023-01-27T00:46:20.191Z,5.07
2023-01-27T00:48:46.918Z,4.63
2023-01-27T00:51:13.845Z,6.63
2023-01-27T00:53:41.323Z,7.07
2023-01-27T00:56:08.494Z,8.15
2023-01-27T00:58:35.191Z,9.20
2023-01-27T01:01:04.141Z,9.60
2023-01-27T01:03:32.804Z,11.05
2023-01-27T01:06:01.347Z,7.72
2023-01-27T01:08:29.711Z,9.80
2023-01-27T01:10:57.792Z,6.07
2023-01-27T01:13:24.562Z,7.35
2023-01-27T01:15:51.117Z,8.32
2023-01-27T01:18:17.759Z,9.65
2023-01-27T01:20:46.471Z,8.38
2023-01-27T01:23:14.697Z,8.48
2023-01-27T01:25:42.334Z,6.45
2023-01-27T01:28:10.010Z,7.35
2023-01-27T01:30:37.669Z,8.00
2023-01-27T01:33:04.453Z,8.00
2023-01-27T01:35:31.144Z,5.10
2023-01-27T01:37:57.736Z,5.97
2023-01-27T01:40:25.823Z,7.80
2023-01-27T01:42:57.559Z,5.05
2023-01-27T01:45:36.709Z,9.15
2023-01-27T01:48:08.793Z,5.22
2023-01-27T01:50:37.537Z,5.68
2023-01-27T01:53:06.468Z,6.55
2023-01-27T01:55:35.278Z,5.25
2023-01-27T01:58:02.983Z,5.07
2023-01-27T02:00:29.690Z,4.40
2023-01-27T02:02:56.720Z,4.32
2023-01-27T02:05:49.698Z,5.93
2023-01-27T02:08:47.704Z,3.10
2023-01-27T02:11:14.302Z,3.90
2023-01-27T02:13:41.706Z,3.58
2023-01-27T02:16:10.049Z,3.83
2023-01-27T02:18:40.111Z,4.82
2023-01-27T02:21:06.958Z,5.60
2023-01-27T02:23:42.268Z,6.60
2023-01-27T02:26:19.500Z,4.15
2023-01-27T02:28:51.896Z,3.83
2023-01-27T02:31:18.619Z,3.72
2023-01-27T02:33:45.231Z,5.38
2023-01-27T02:36:17.560Z,6.60
2023-01-27T02:38:47.493Z,4.60
2023-01-27T02:41:20.055Z,3.80
2023-01-27T02:43:48.804Z,4.35
2023-01-27T02:46:16.123Z,5.43
2023-01-27T02:48:42.909Z,3.58
2023-01-27T02:51:09.666Z,4.93
2023-01-27T02:53:36.255Z,4.63
2023-01-27T02:56:03.102Z,3.25
2023-01-27T02:58:29.799Z,3.67
2023-01-27T03:00:56.364Z,4.63
2023-01-27T03:03:22.964Z,4.43
2023-01-27T03:05:50.931Z,4.50
2023-01-27T03:08:20.374Z,6.07
2023-01-27T03:10:51.894Z,4.70
2023-01-27T03:13:25.207Z,3.75
2023-01-27T03:16:13.460Z,4.55
2023-01-27T03:18:41.144Z,6.63
2023-01-27T03:21:07.697Z,3.10
2023-01-27T03:23:34.563Z,3.70
2023-01-27T03:26:05.971Z,3.53
2023-01-27T03:28:33.019Z,4.30
2023-01-27T03:31:07.942Z,3.90
2023-01-27T03:33:35.567Z,5.72
2023-01-27T03:36:21.676Z,5.18
2023-01-27T03:39:06.647Z,5.40
2023-01-27T03:41:52.598Z,8.65
2023-01-27T03:44:37.691Z,6.13
2023-01-27T03:47:04.261Z,7.68
2023-01-27T03:49:30.832Z,4.65
2023-01-27T03:51:57.508Z,5.25
2023-01-27T03:54:24.050Z,6.32
2023-01-27T03:56:50.581Z,6.13
2023-01-27T03:59:17.086Z,5.90
2023-01-27T04:01:44.214Z,4.78
2023-01-27T04:04:30.262Z,4.65
2023-01-27T04:07:02.780Z,4.50
2023-01-27T04:09:33.920Z,3.63
2023-01-27T04:12:02.783Z,3.53
2023-01-27T04:14:31.890Z,4.03
2023-01-27T04:17:03.949Z,3.95
2023-01-27T04:19:30.814Z,5.50
2023-01-27T04:21:58.901Z,2.97
2023-01-27T04:24:25.937Z,5.43
2023-01-27T04:27:01.499Z,5.88
2023-01-27T04:29:30.304Z,4.13
2023-01-27T04:31:57.911Z,6.53
2023-01-27T04:34:25.460Z,3.83
2023-01-27T04:36:52.340Z,8.10
2023-01-27T04:39:19.356Z,3.45
2023-01-27T04:41:46.642Z,6.53
2023-01-27T04:44:13.397Z,6.90
2023-01-27T04:46:40.279Z,7.78
2023-01-27T04:49:08.031Z,6.65
2023-01-27T04:51:35.339Z,6.40
2023-01-27T04:54:03.842Z,6.43
2023-01-27T04:56:43.131Z,7.35
2023-01-27T04:59:15.704Z,6.03
2023-01-27T05:01:42.335Z,5.30
2023-01-27T05:04:08.849Z,5.20
2023-01-27T05:06:35.385Z,3.85
2023-01-27T05:09:02.286Z,5.18
2023-01-27T05:11:29.089Z,5.88
2023-01-27T05:13:55.721Z,6.50
2023-01-27T05:16:24.104Z,4.15
2023-01-27T05:18:52.672Z,6.68
2023-01-27T05:21:25.131Z,5.15
2023-01-27T05:23:51.784Z,5.63
2023-01-27T05:26:21.484Z,7.15
2023-01-27T05:28:49.706Z,5.28
2023-01-27T05:31:24.798Z,4.38
2023-01-27T05:33:53.394Z,3.90
2023-01-27T05:36:22.309Z,4.65
2023-01-27T05:38:49.294Z,5.95
2023-01-27T05:41:17.787Z,5.10
2023-01-27T05:43:46.364Z,3.72
2023-01-27T05:46:15.390Z,4.82
2023-01-27T05:48:44.814Z,7.22
2023-01-27T05:51:14.827Z,4.50
2023-01-27T05:53:42.678Z,5.03
2023-01-27T05:56:11.209Z,3.67
2023-01-27T05:58:39.038Z,3.33
2023-01-27T06:01:20.385Z,4.50
2023-01-27T06:03:48.137Z,5.25
2023-01-27T06:06:17.275Z,3.63
2023-01-27T06:08:44.136Z,3.25
2023-01-27T06:11:10.677Z,3.53
2023-01-27T06:13:38.779Z,4.55
2023-01-27T06:16:08.298Z,4.10
2023-01-27T06:18:35.384Z,6.03
2023-01-27T06:21:03.167Z,5.45
2023-01-27T06:23:30.033Z,5.68
2023-01-27T06:25:56.919Z,4.85
2023-01-27T06:28:29.241Z,3.58
2023-01-27T06:30:57.229Z,5.45
2023-01-27T06:33:23.848Z,4.70
2023-01-27T06:35:50.523Z,6.03
2023-01-27T06:38:17.221Z,5.18
2023-01-27T06:40:44.309Z,4.30
2023-01-27T06:43:14.145Z,3.35
2023-01-27T06:45:41.368Z,6.25
2023-01-27T06:48:10.995Z,5.60
2023-01-27T06:50:37.661Z,6.78
2023-01-27T06:53:06.648Z,4.68
2023-01-27T06:55:34.440Z,5.65
2023-01-27T06:58:03.918Z,4.28
2023-01-27T07:00:30.592Z,5.70
2023-01-27T07:02:57.741Z,6.78
2023-01-27T07:05:25.083Z,5.68
2023-01-27T07:07:51.772Z,5.45
2023-01-27T07:10:18.465Z,4.32
2023-01-27T07:12:45.138Z,4.55
2023-01-27T07:15:12.541Z,4.18
2023-01-27T07:17:39.787Z,5.43
2023-01-27T07:20:08.278Z,7.65
2023-01-27T07:22:34.841Z,6.68
2023-01-27T07:25:02.245Z,7.25
2023-01-27T07:27:29.505Z,6.07
2023-01-27T07:29:56.117Z,7.13
2023-01-27T07:32:22.696Z,6.65
2023-01-27T07:34:49.251Z,7.30
2023-01-27T07:37:15.843Z,4.20
2023-01-27T07:39:42.425Z,5.88
2023-01-27T07:42:09.698Z,5.97
2023-01-27T07:44:36.323Z,8.65
2023-01-27T07:47:02.891Z,5.45
2023-01-27T07:49:29.458Z,5.28
2023-01-27T07:51:56.013Z,3.38
2023-01-27T07:54:22.682Z,5.97
2023-01-27T07:56:49.214Z,4.85
2023-01-27T07:59:15.774Z,6.45
2023-01-27T08:01:43.295Z,5.13
2023-01-27T08:04:10.022Z,4.47
2023-01-27T08:06:39.710Z,5.07
2023-01-27T08:09:06.636Z,6.63
2023-01-27T08:11:33.571Z,5.25
2023-01-27T08:14:00.169Z,6.53
2023-01-27T08:16:26.781Z,5.25
2023-01-27T08:18:54.129Z,6.43
2023-01-27T08:21:20.985Z,6.35
2023-01-27T08:23:47.641Z,6.55
2023-01-27T08:26:14.238Z,6.97
2023-01-27T08:28:41.066Z,6.70
2023-01-27T08:31:14.048Z,5.55
2023-01-27T08:33:41.714Z,7.00
2023-01-27T08:36:14.398Z,5.95
2023-01-27T08:38:41.950Z,7.22
2023-01-27T08:41:11.487Z,8.00
2023-01-27T08:43:38.471Z,7.30
2023-01-27T08:46:06.661Z,5.95
2023-01-27T08:48:34.665Z,4.72
2023-01-27T08:51:02.384Z,4.78
2023-01-27T08:53:29.594Z,6.38
2023-01-27T08:55:58.285Z,6.28
2023-01-27T08:58:25.550Z,6.60
2023-01-27T09:00:52.123Z,8.02
2023-01-27T09:03:18.689Z,6.53
2023-01-27T09:05:45.419Z,5.93
2023-01-27T09:08:11.978Z,6.72
2023-01-27T09:10:40.621Z,9.98
2023-01-27T09:13:08.724Z,7.95
2023-01-27T09:15:36.547Z,8.55
2023-01-27T09:18:06.265Z,7.03
2023-01-27T09:20:34.550Z,6.85
2023-01-27T09:23:03.069Z,7.80
2023-01-27T09:25:29.670Z,8.18
2023-01-27T09:27:57.540Z,9.75
2023-01-27T09:30:25.202Z,9.55
2023-01-27T09:32:51.932Z,8.98
2023-01-27T09:35:19.025Z,7.00
2023-01-27T09:37:54.848Z,7.43
2023-01-27T09:40:28.981Z,8.57
2023-01-27T09:43:33.146Z,8.45
2023-01-27T09:46:14.816Z,8.35
2023-01-27T09:49:05.010Z,7.78
2023-01-27T09:51:37.528Z,5.82
2023-01-27T09:54:30.732Z,6.95
2023-01-27T09:57:06.651Z,8.45
2023-01-27T09:59:47.261Z,9.38
2023-01-27T10:02:45.396Z,8.68
2023-01-27T10:05:52.934Z,6.38
2023-01-27T10:08:43.717Z,6.40
2023-01-27T10:11:10.236Z,7.10
2023-01-27T10:14:02.155Z,8.57
2023-01-27T10:16:57.423Z,8.57
2023-01-27T10:19:29.580Z,9.48
2023-01-27T10:22:13.291Z,9.23
2023-01-27T10:25:03.746Z,9.52
2023-01-27T10:27:40.511Z,6.00
2023-01-27T10:30:15.797Z,6.28
2023-01-27T10:32:46.927Z,9.38
2023-01-27T10:37:59.197Z,9.07
2023-01-27T10:40:53.103Z,7.97
2023-01-27T10:43:53.314Z,7.95
2023-01-27T10:46:22.628Z,10.95
2023-01-27T10:48:56.326Z,11.18
2023-01-27T10:51:39.916Z,6.35
2023-01-27T10:54:17.023Z,7.35
2023-01-27T10:56:45.808Z,10.68
2023-01-27T10:59:33.156Z,7.70
2023-01-27T11:02:31.807Z,5.97
2023-01-27T11:05:02.303Z,10.15
2023-01-27T11:10:11.216Z,10.32
2023-01-27T11:12:44.698Z,13.00
2023-01-27T11:15:26.812Z,10.10
2023-01-27T11:18:12.149Z,8.68
2023-01-27T11:20:42.997Z,7.05
2023-01-27T11:23:09.459Z,5.38
2023-01-27T11:25:38.869Z,7.90
2023-01-27T11:28:28.452Z,10.48
2023-01-27T11:30:54.941Z,7.60
2023-01-27T11:33:27.447Z,11.57
2023-01-27T11:35:54.435Z,9.45
2023-01-27T11:38:23.065Z,7.93
2023-01-27T11:40:53.172Z,13.13
2023-01-27T11:43:23.591Z,9.35
2023-01-27T11:45:55.206Z,6.03
2023-01-27T11:48:23.546Z,10.20
2023-01-27T11:50:50.548Z,8.55
2023-01-27T11:53:24.249Z,5.60
2023-01-27T11:55:54.240Z,4.88
2023-01-27T11:58:27.481Z,7.40
2023-01-27T12:01:19.966Z,5.72
2023-01-27T12:03:46.499Z,8.20
2023-01-27T12:06:23.569Z,7.20
2023-01-27T12:08:50.191Z,6.75
2023-01-27T12:11:17.839Z,9.80
2023-01-27T12:13:55.184Z,8.48
2023-01-27T12:16:44.463Z,9.25
2023-01-27T12:19:37.912Z,13.20
2023-01-27T12:22:24.496Z,7.80
2023-01-27T12:24:55.783Z,12.52
2023-01-27T12:27:28.603Z,9.63
2023-01-27T12:29:58.854Z,11.40
2023-01-27T12:32:44.251Z,13.82
2023-01-27T12:35:24.479Z,5.07
2023-01-27T12:37:58.287Z,10.63
2023-01-27T12:43:01.529Z,9.57
2023-01-27T12:45:38.381Z,11.23
2023-01-27T12:48:07.650Z,8.10
2023-01-27T12:50:42.435Z,7.28
2023-01-27T12:53:14.065Z,8.05
2023-01-27T12:56:03.052Z,8.25
2023-01-27T12:58:33.666Z,9.77
2023-01-27T13:01:21.463Z,8.68
2023-01-27T13:04:03.992Z,6.70
2023-01-27T13:06:47.628Z,7.70
2023-01-27T13:09:39.217Z,7.40
2023-01-27T13:12:22.341Z,5.80
2023-01-27T13:14:55.778Z,11.30
2023-01-27T13:17:34.627Z,6.05
2023-01-27T13:20:22.845Z,13.20
2023-01-27T13:22:59.766Z,6.32
2023-01-27T13:25:45.442Z,8.48
2023-01-27T13:28:20.355Z,12.10
2023-01-27T13:30:53.074Z,9.05
2023-01-27T13:33:43.575Z,8.82
2023-01-27T13:36:20.915Z,8.23
2023-01-27T13:39:13.387Z,10.52
2023-01-27T13:41:50.556Z,11.57
2023-01-27T13:44:28.384Z,12.80
2023-01-27T13:47:01.387Z,9.95
2023-01-27T13:49:50.494Z,10.43
2023-01-27T13:52:17.088Z,11.63
2023-01-27T13:54:43.626Z,10.35
2023-01-27T13:58:00.033Z,7.97
2023-01-27T14:00:43.003Z,12.20
2023-01-27T14:03:35.430Z,11.90
2023-01-27T14:06:30.136Z,13.38
2023-01-27T14:08:59.525Z,10.25
2023-01-27T14:11:31.844Z,12.02
2023-01-27T14:14:21.491Z,8.82
2023-01-27T14:17:00.863Z,9.77
2023-01-27T14:19:39.465Z,7.50
2023-01-27T14:22:11.950Z,8.38
2023-01-27T14:24:44.501Z,7.85
2023-01-27T14:27:17.750Z,11.95
2023-01-27T14:30:12.784Z,9.43
2023-01-27T14:32:51.619Z,10.82
2023-01-27T14:35:34.185Z,11.10
2023-01-27T14:38:28.027Z,10.70
2023-01-27T14:41:19.028Z,7.60
2023-01-27T14:44:04.356Z,11.82
2023-01-27T14:46:48.958Z,7.88
2023-01-27T14:49:15.505Z,6.38
2023-01-27T14:51:57.540Z,11.98
2023-01-27T14:54:38.326Z,6.18
2023-01-27T14:57:18.186Z,7.90
2023-01-27T15:00:03.340Z,14.27
2023-01-27T15:03:09.230Z,8.68
2023-01-27T15:05:50.731Z,7.80
2023-01-27T15:08:28.018Z,5.10
2023-01-27T15:11:03.703Z,5.05
2023-01-27T15:13:33.041Z,6.90
2023-01-27T15:16:15.068Z,6.32
2023-01-27T15:19:02.829Z,7.88
2023-01-27T15:21:45.542Z,7.00
2023-01-27T15:24:50.925Z,6.25
2023-01-27T15:27:18.017Z,9.10
2023-01-27T15:29:45.924Z,6.68
2023-01-27T15:32:15.605Z,7.10
2023-01-27T15:34:44.524Z,5.70
2023-01-27T15:37:22.899Z,8.55
2023-01-27T15:40:04.819Z,5.72
2023-01-27T15:43:02.427Z,7.38
2023-01-27T15:45:33.792Z,7.45
2023-01-27T15:48:06.753Z,6.05
2023-01-27T15:50:37.234Z,11.30
2023-01-27T15:53:16.067Z,8.40
2023-01-27T15:55:55.376Z,13.85
2023-01-27T15:58:39.728Z,13.00
2023-01-27T16:01:29.176Z,6.40
2023-01-27T16:04:17.599Z,7.85
2023-01-27T16:06:48.189Z,7.57
2023-01-27T16:09:31.037Z,6.85
2023-01-27T16:12:03.589Z,5.05
2023-01-27T16:14:39.971Z,8.02
2023-01-27T16:17:18.502Z,8.07
2023-01-27T16:19:58.067Z,5.38
2023-01-27T16:22:26.754Z,9.52
2023-01-27T16:25:13.117Z,11.30
2023-01-27T16:28:00.365Z,14.10
2023-01-27T16:30:29.379Z,6.10
2023-01-27T16:32:59.025Z,5.82
2023-01-27T16:35:26.580Z,7.72
2023-01-27T16:38:01.888Z,10.65
2023-01-27T16:40:29.542Z,6.63
2023-01-27T16:43:00.607Z,6.57
2023-01-27T16:45:38.767Z,10.85
2023-01-27T16:48:12.362Z,10.40
2023-01-27T16:50:41.565Z,6.68
2023-01-27T16:53:34.298Z,6.80
2023-01-27T16:56:04.403Z,5.78
2023-01-27T16:58:45.515Z,17.75
2023-01-27T17:01:23.043Z,13.90
2023-01-27T17:03:51.364Z,9.00
2023-01-27T17:06:18.147Z,9.40
2023-01-27T17:08:46.698Z,14.40
2023-01-27T17:11:28.310Z,10.05
2023-01-27T17:14:28.643Z,11.63
2023-01-27T17:17:02.914Z,9.43
2023-01-27T17:19:34.399Z,7.57
2023-01-27T17:22:03.838Z,12.95
2023-01-27T17:24:33.170Z,12.10
2023-01-27T17:27:10.562Z,12.10
2023-01-27T17:29:39.804Z,16.38
2023-01-27T17:32:28.630Z,10.43
2023-01-27T17:34:59.208Z,12.07
2023-01-27T17:37:26.402Z,11.05
2023-01-27T17:39:58.291Z,8.82
2023-01-27T17:42:29.051Z,6.60
2023-01-27T17:44:55.601Z,9.80
2023-01-27T17:47:22.671Z,10.77
2023-01-27T17:49:50.643Z,10.60
2023-01-27T17:52:27.562Z,10.73
2023-01-27T17:54:54.851Z,8.68
2023-01-27T17:57:24.206Z,8.30
2023-01-27T18:00:04.926Z,6.07
2023-01-27T18:02:36.407Z,10.68
2023-01-27T18:05:15.496Z,9.63
2023-01-27T18:07:42.317Z,10.27
2023-01-27T18:10:39.325Z,7.65
2023-01-27T18:13:18.135Z,7.28
2023-01-27T18:16:01.109Z,7.40
2023-01-27T18:18:30.728Z,12.00
2023-01-27T18:20:57.317Z,8.10
2023-01-27T18:23:28.798Z,8.57
2023-01-27T18:26:18.748Z,11.77
2023-01-27T18:28:48.645Z,11.82
2023-01-27T18:31:20.639Z,10.40
2023-01-27T18:34:00.559Z,8.07
2023-01-27T18:36:34.554Z,8.32
2023-01-27T18:39:37.164Z,9.82
2023-01-27T18:42:16.684Z,12.10
2023-01-27T18:44:43.303Z,7.28
2023-01-27T18:47:25.622Z,7.60
2023-01-27T18:50:00.442Z,8.15
2023-01-27T18:52:28.220Z,8.65
2023-01-27T18:55:16.134Z,6.57
2023-01-27T18:57:44.052Z,10.55
2023-01-27T19:00:16.326Z,9.38
2023-01-27T19:02:46.461Z,13.15
2023-01-27T19:05:25.483Z,8.80
2023-01-27T19:07:52.048Z,9.02
2023-01-27T19:10:25.001Z,15.25
2023-01-27T19:12:58.218Z,7.20
2023-01-27T19:15:30.451Z,10.13
2023-01-27T19:17:59.175Z,12.55
2023-01-27T19:20:30.842Z,11.00
2023-01-27T19:22:58.660Z,10.23
2023-01-27T19:25:28.729Z,10.60
2023-01-27T19:28:01.692Z,9.00
2023-01-27T19:30:36.666Z,8.38
2023-01-27T19:33:24.507Z,9.23
2023-01-27T19:35:54.560Z,7.00
2023-01-27T19:38:22.533Z,14.73
2023-01-27T19:40:49.434Z,9.82
2023-01-27T19:43:16.864Z,12.55
2023-01-27T19:45:45.811Z,10.75
2023-01-27T19:48:19.927Z,10.57
2023-01-27T19:50:46.956Z,9.60
2023-01-27T19:53:14.981Z,9.43
2023-01-27T19:55:42.214Z,8.68
2023-01-27T19:58:24.695Z,12.27
2023-01-27T20:00:52.306Z,9.48
2023-01-27T20:03:19.187Z,12.90
2023-01-27T20:05:46.119Z,12.40
2023-01-27T20:08:16.555Z,12.40
2023-01-27T20:10:43.772Z,14.52
2023-01-27T20:13:14.927Z,11.40
2023-01-27T20:15:41.882Z,9.30
2023-01-27T20:18:12.615Z,9.35
2023-01-27T20:20:39.321Z,13.85
2023-01-27T20:23:06.108Z,12.77
2023-01-27T20:25:33.054Z,10.73
2023-01-27T20:28:01.304Z,9.13
2023-01-27T20:30:32.332Z,11.43
2023-01-27T20:33:00.800Z,13.77
2023-01-27T20:35:28.156Z,8.82
2023-01-27T20:37:55.229Z,11.73
2023-01-27T20:40:26.881Z,13.80
2023-01-27T20:42:53.639Z,13.00
2023-01-27T20:45:21.277Z,13.05
2023-01-27T20:47:49.560Z,14.70
2023-01-27T20:50:16.522Z,10.20
2023-01-27T20:52:43.263Z,13.20
2023-01-27T20:55:09.990Z,11.45
2023-01-27T20:57:36.535Z,12.15
2023-01-27T21:00:03.772Z,12.65
2023-01-27T21:02:31.422Z,10.15
2023-01-27T21:04:58.037Z,13.23
2023-01-27T21:07:25.309Z,10.45
2023-01-27T21:09:53.543Z,9.55
2023-01-27T21:12:21.587Z,9.80
2023-01-27T21:14:48.323Z,12.20
2023-01-27T21:17:14.879Z,11.43
2023-01-27T21:19:41.420Z,14.88
2023-01-27T21:22:07.984Z,12.40
2023-01-27T21:24:35.555Z,11.02
2023-01-27T21:27:02.159Z,15.65
2023-01-27T21:29:28.780Z,11.02
2023-01-27T21:31:55.364Z,9.77
2023-01-27T21:34:22.908Z,11.20
2023-01-27T21:36:49.572Z,8.32
2023-01-27T21:39:16.055Z,9.90
2023-01-27T21:41:54.615Z,9.23
2023-01-27T21:44:45.241Z,15.57
2023-01-27T21:47:14.509Z,10.77
2023-01-27T21:50:00.751Z,10.88
2023-01-27T21:52:53.603Z,12.60
2023-01-27T21:55:21.711Z,8.00
2023-01-27T21:57:50.942Z,9.65
2023-01-27T22:00:23.323Z,10.35
2023-01-27T22:02:53.921Z,8.73
2023-01-27T22:05:20.457Z,10.10
2023-01-27T22:07:48.315Z,9.48
2023-01-27T22:10:18.580Z,7.78
2023-01-27T22:12:46.118Z,12.40
2023-01-27T22:15:14.956Z,9.60
2023-01-27T22:17:41.813Z,7.55
2023-01-27T22:20:12.855Z,10.45
2023-01-27T22:22:39.427Z,8.68
2023-01-27T22:25:06.197Z,11.82
2023-01-27T22:27:33.011Z,10.65
2023-01-27T22:29:59.506Z,13.07
2023-01-27T22:32:26.039Z,6.32
2023-01-27T22:34:52.615Z,8.85
2023-01-27T22:37:19.126Z,8.45
2023-01-27T22:39:45.653Z,9.13
2023-01-27T22:42:12.250Z,15.55
2023-01-27T22:44:38.789Z,9.88
2023-01-27T22:47:05.727Z,8.50
2023-01-27T22:49:32.249Z,7.60
2023-01-27T22:51:58.780Z,11.20
2023-01-27T22:54:26.173Z,10.05
2023-01-27T22:56:52.706Z,14.98
2023-01-27T22:59:19.214Z,14.25
2023-01-27T23:01:45.821Z,7.55
2023-01-27T23:04:14.227Z,10.43
2023-01-27T23:06:40.784Z,11.85
2023-01-27T23:09:07.357Z,8.13
2023-01-27T23:11:33.904Z,7.88
2023-01-27T23:14:01.389Z,8.82
2023-01-27T23:16:28.107Z,9.55
2023-01-27T23:18:54.669Z,9.77
2023-01-27T23:21:21.236Z,7.97
2023-01-27T23:23:50.126Z,7.65
2023-01-27T23:26:16.715Z,8.23
2023-01-27T23:28:43.253Z,11.73
2023-01-27T23:31:11.874Z,10.38
2023-01-27T23:33:40.510Z,10.05
2023-01-27T23:36:08.463Z,8.32
2023-01-27T23:38:36.080Z,7.10
2023-01-27T23:41:08.105Z,10.60
2023-01-27T23:43:34.921Z,8.88
2023-01-27T23:46:01.499Z,9.50
2023-01-27T23:48:28.421Z,8.15
2023-01-27T23:50:55.144Z,6.80
2023-01-27T23:53:22.043Z,9.77
2023-01-27T23:55:58.704Z,6.78
2023-01-27T23:58:26.365Z,9.77
